Berit — ZDHX2 — position and weather

sailwx.info

Track history (hours):
 
Tides and Currents Weather Stations Pressure Air Temp Water Temp Dewpoint Dewpoint Depression Visibility Wind Speed Wind Dir Waves Ship Positions

Berit

Last reported at 2014-Sep-01 17:15 UTC. Time now 2014-Sep-01 18:43 UTC.
Position N 66°60' E 013°37'.

Length 83 m; draft 3.4 m.

Type: Cargo ship. MMSI: 236386000.

Date/timePositionNaut miles runAvg speedWind from/ knotsBaromVisibWave heightAir tempDewpointWater temp
2014-Sep-01 17:15N 66°60' E 013°37'1010.3
2014-Sep-01 16:19N 67°06' E 013°57'6 7.6
2014-Sep-01 15:33N 67°09' E 014°09'1 0.6
2014-Sep-01 14:16N 67°09' E 014°10'0 0.0
2014-Sep-01 13:28N 67°09' E 014°10'0 0.0
2014-Sep-01 12:28N 67°09' E 014°10'0 0.0
2014-Sep-01 11:28N 67°09' E 014°10'0 0.0
2014-Sep-01 10:28N 67°09' E 014°10'0 0.0
2014-Sep-01 09:19N 67°09' E 014°10'0 0.1
2014-Sep-01 08:31N 67°09' E 014°10'0 0.0
2014-Sep-01 07:31N 67°09' E 014°10'0 0.0
2014-Sep-01 06:31N 67°09' E 014°10'0 0.0
2014-Sep-01 05:31N 67°09' E 014°10'0 0.0
2014-Sep-01 04:31N 67°09' E 014°10'0 0.0
2014-Sep-01 03:31N 67°09' E 014°10'0 0.0
2014-Sep-01 02:25N 67°09' E 014°10'0 0.0
2014-Sep-01 01:31N 67°09' E 014°10'0 0.0
2014-Aug-31 23:31N 67°09' E 014°10'0 0.0
2014-Aug-31 22:31N 67°09' E 014°10'0 0.1
2014-Aug-31 21:31N 67°09' E 014°11'0 0.0
2014-Aug-31 20:25N 67°09' E 014°10'0 0.1
2014-Aug-31 19:28N 67°09' E 014°10'0 0.0
2014-Aug-31 18:28N 67°09' E 014°10'0 0.0
2014-Aug-31 17:28N 67°09' E 014°10'0 0.0
2014-Aug-31 16:28N 67°09' E 014°10'0 0.0
2014-Aug-31 15:04N 67°09' E 014°11'0 0.1
2014-Aug-31 14:25N 67°09' E 014°11'0 0.0
2014-Aug-31 13:22N 67°09' E 014°10'0 0.1
2014-Aug-31 12:31N 67°09' E 014°10'0 0.0
2014-Aug-31 11:28N 67°09' E 014°10'0 0.0
2014-Aug-31 10:28N 67°09' E 014°10'0 0.0
2014-Aug-31 09:31N 67°09' E 014°10'0 0.1
2014-Aug-31 08:33N 67°09' E 014°10'7 7.3
2014-Aug-31 07:33N 67°16' E 014°13'1010.4
2014-Aug-31 06:33N 67°25' E 014°26'9 7.9
2014-Aug-31 05:27N 67°32' E 014°12'21 2.0
2014-Aug-30 19:09N 67°52' E 014°25'96 2.0
2014-Aug-28 18:23N 66°37' E 011°51'199 9.8
2014-Aug-27 22:11N 63°44' E 007°57'  
2014-Aug-23 01:18N 50°27' E 000°53'62 8.0
2014-Aug-22 17:32N 49°39' W 000°09'  
Track history (hours):
 
Tides and Currents Weather Stations Pressure Air Temp Water Temp Dewpoint Dewpoint Depression Visibility Wind Speed Wind Dir Waves Ship Positions

Berit

Last reported at 2014-Sep-01 17:15 UTC. Time now 2014-Sep-01 18:43 UTC.
Position N 66°60' E 013°37'.

Length 83 m; draft 3.4 m.

Type: Cargo ship. MMSI: 236386000.

Date/timePositionNaut miles runAvg speedWind from/ knotsBaromVisibWave heightAir tempDewpointWater temp
2014-Sep-01 17:15N 66°60' E 013°37'1010.3
2014-Sep-01 16:19N 67°06' E 013°57'6 7.6
2014-Sep-01 15:33N 67°09' E 014°09'1 0.6
2014-Sep-01 14:16N 67°09' E 014°10'0 0.0
2014-Sep-01 13:28N 67°09' E 014°10'0 0.0
2014-Sep-01 12:28N 67°09' E 014°10'0 0.0
2014-Sep-01 11:28N 67°09' E 014°10'0 0.0
2014-Sep-01 10:28N 67°09' E 014°10'0 0.0
2014-Sep-01 09:19N 67°09' E 014°10'0 0.1
2014-Sep-01 08:31N 67°09' E 014°10'0 0.0
2014-Sep-01 07:31N 67°09' E 014°10'0 0.0
2014-Sep-01 06:31N 67°09' E 014°10'0 0.0
2014-Sep-01 05:31N 67°09' E 014°10'0 0.0
2014-Sep-01 04:31N 67°09' E 014°10'0 0.0
2014-Sep-01 03:31N 67°09' E 014°10'0 0.0
2014-Sep-01 02:25N 67°09' E 014°10'0 0.0
2014-Sep-01 01:31N 67°09' E 014°10'0 0.0
2014-Aug-31 23:31N 67°09' E 014°10'0 0.0
2014-Aug-31 22:31N 67°09' E 014°10'0 0.1
2014-Aug-31 21:31N 67°09' E 014°11'0 0.0
2014-Aug-31 20:25N 67°09' E 014°10'0 0.1
2014-Aug-31 19:28N 67°09' E 014°10'0 0.0
2014-Aug-31 18:28N 67°09' E 014°10'0 0.0
2014-Aug-31 17:28N 67°09' E 014°10'0 0.0
2014-Aug-31 16:28N 67°09' E 014°10'0 0.0
2014-Aug-31 15:04N 67°09' E 014°11'0 0.1
2014-Aug-31 14:25N 67°09' E 014°11'0 0.0
2014-Aug-31 13:22N 67°09' E 014°10'0 0.1
2014-Aug-31 12:31N 67°09' E 014°10'0 0.0
2014-Aug-31 11:28N 67°09' E 014°10'0 0.0
2014-Aug-31 10:28N 67°09' E 014°10'0 0.0
2014-Aug-31 09:31N 67°09' E 014°10'0 0.1
2014-Aug-31 08:33N 67°09' E 014°10'7 7.3
2014-Aug-31 07:33N 67°16' E 014°13'1010.4
2014-Aug-31 06:33N 67°25' E 014°26'9 7.9
2014-Aug-31 05:27N 67°32' E 014°12'21 2.0
2014-Aug-30 19:09N 67°52' E 014°25'96 2.0
2014-Aug-28 18:23N 66°37' E 011°51'199 9.8
2014-Aug-27 22:11N 63°44' E 007°57'  
2014-Aug-23 01:18N 50°27' E 000°53'62 8.0
2014-Aug-22 17:32N 49°39' W 000°09'  

Dump ship's entire track history